sensor_id;sensor_type;location;lat;lon;timestamp;temperature;humidity
10057;DHT22;5068;51.286;7.518;2023-05-10T00:00:50;13.70;67.50
10057;DHT22;5068;51.286;7.518;2023-05-10T00:02:23;13.70;67.40
10057;DHT22;5068;51.286;7.518;2023-05-10T00:03:56;13.70;67.50
10057;DHT22;5068;51.286;7.518;2023-05-10T00:05:31;13.70;67.60
10057;DHT22;5068;51.286;7.518;2023-05-10T00:07:04;13.60;67.60
10057;DHT22;5068;51.286;7.518;2023-05-10T00:08:37;13.70;67.90
10057;DHT22;5068;51.286;7.518;2023-05-10T00:10:11;13.60;67.50
10057;DHT22;5068;51.286;7.518;2023-05-10T00:11:44;13.60;67.50
10057;DHT22;5068;51.286;7.518;2023-05-10T00:13:17;13.70;67.80
10057;DHT22;5068;51.286;7.518;2023-05-10T00:14:50;13.60;67.70
10057;DHT22;5068;51.286;7.518;2023-05-10T00:16:23;13.60;67.70
10057;DHT22;5068;51.286;7.518;2023-05-10T00:17:56;13.70;67.90
10057;DHT22;5068;51.286;7.518;2023-05-10T00:19:29;13.70;68.00
10057;DHT22;5068;51.286;7.518;2023-05-10T00:21:04;13.60;67.90
10057;DHT22;5068;51.286;7.518;2023-05-10T00:22:38;13.60;67.90
10057;DHT22;5068;51.286;7.518;2023-05-10T00:24:11;13.60;67.90
10057;DHT22;5068;51.286;7.518;2023-05-10T00:25:44;13.60;67.90
10057;DHT22;5068;51.286;7.518;2023-05-10T00:27:17;13.60;67.90
10057;DHT22;5068;51.286;7.518;2023-05-10T00:28:49;13.60;67.80
10057;DHT22;5068;51.286;7.518;2023-05-10T00:30:23;13.70;67.80
10057;DHT22;5068;51.286;7.518;2023-05-10T00:31:55;13.60;67.90
10057;DHT22;5068;51.286;7.518;2023-05-10T00:33:29;13.60;67.90
10057;DHT22;5068;51.286;7.518;2023-05-10T00:35:02;13.60;68.00
10057;DHT22;5068;51.286;7.518;2023-05-10T00:36:37;13.60;68.00
10057;DHT22;5068;51.286;7.518;2023-05-10T00:38:11;13.60;68.00
10057;DHT22;5068;51.286;7.518;2023-05-10T00:39:43;13.60;67.90
10057;DHT22;5068;51.286;7.518;2023-05-10T00:41:16;13.60;67.80
10057;DHT22;5068;51.286;7.518;2023-05-10T00:42:50;13.60;67.80
10057;DHT22;5068;51.286;7.518;2023-05-10T00:44:23;13.60;67.80
10057;DHT22;5068;51.286;7.518;2023-05-10T00:45:57;13.60;68.00
10057;DHT22;5068;51.286;7.518;2023-05-10T00:47:31;13.60;68.10
10057;DHT22;5068;51.286;7.518;2023-05-10T00:49:06;13.60;68.20
10057;DHT22;5068;51.286;7.518;2023-05-10T00:50:39;13.60;68.20
10057;DHT22;5068;51.286;7.518;2023-05-10T00:52:14;13.60;68.30
10057;DHT22;5068;51.286;7.518;2023-05-10T00:53:48;13.60;68.40
10057;DHT22;5068;51.286;7.518;2023-05-10T00:55:23;13.60;68.40
10057;DHT22;5068;51.286;7.518;2023-05-10T00:56:57;13.60;68.20
10057;DHT22;5068;51.286;7.518;2023-05-10T00:58:30;13.60;68.10
10057;DHT22;5068;51.286;7.518;2023-05-10T01:00:03;13.60;68.00
10057;DHT22;5068;51.286;7.518;2023-05-10T01:01:41;13.60;68.00
10057;DHT22;5068;51.286;7.518;2023-05-10T01:03:14;13.60;68.10
10057;DHT22;5068;51.286;7.518;2023-05-10T01:04:49;13.60;68.20
10057;DHT22;5068;51.286;7.518;2023-05-10T01:06:23;13.60;68.40
10057;DHT22;5068;51.286;7.518;2023-05-10T01:07:58;13.60;68.30
10057;DHT22;5068;51.286;7.518;2023-05-10T01:09:32;13.50;68.20
10057;DHT22;5068;51.286;7.518;2023-05-10T01:11:05;13.50;68.20
10057;DHT22;5068;51.286;7.518;2023-05-10T01:12:40;13.50;68.40
10057;DHT22;5068;51.286;7.518;2023-05-10T01:14:18;13.50;68.50
10057;DHT22;5068;51.286;7.518;2023-05-10T01:15:52;13.50;68.60
10057;DHT22;5068;51.286;7.518;2023-05-10T01:17:26;13.50;68.60
10057;DHT22;5068;51.286;7.518;2023-05-10T01:19:00;13.50;68.70
10057;DHT22;5068;51.286;7.518;2023-05-10T01:20:39;13.50;68.70
10057;DHT22;5068;51.286;7.518;2023-05-10T01:22:34;13.50;68.80
10057;DHT22;5068;51.286;7.518;2023-05-10T01:24:38;13.50;69.00
10057;DHT22;5068;51.286;7.518;2023-05-10T01:29:14;13.50;68.90
10057;DHT22;5068;51.286;7.518;2023-05-10T01:31:17;13.50;68.90
10057;DHT22;5068;51.286;7.518;2023-05-10T01:33:00;13.50;68.80
10057;DHT22;5068;51.286;7.518;2023-05-10T01:34:44;13.50;68.70
10057;DHT22;5068;51.286;7.518;2023-05-10T01:36:31;13.50;68.70
10057;DHT22;5068;51.286;7.518;2023-05-10T01:38:14;13.50;68.70
10057;DHT22;5068;51.286;7.518;2023-05-10T01:39:55;13.50;68.70
10057;DHT22;5068;51.286;7.518;2023-05-10T01:41:40;13.50;68.60
10057;DHT22;5068;51.286;7.518;2023-05-10T01:43:22;13.50;68.70
10057;DHT22;5068;51.286;7.518;2023-05-10T01:45:07;13.50;68.60
10057;DHT22;5068;51.286;7.518;2023-05-10T01:46:50;13.50;68.60
10057;DHT22;5068;51.286;7.518;2023-05-10T01:48:31;13.50;68.60
10057;DHT22;5068;51.286;7.518;2023-05-10T01:50:09;13.50;68.60
10057;DHT22;5068;51.286;7.518;2023-05-10T01:51:51;13.50;69.40
10057;DHT22;5068;51.286;7.518;2023-05-10T01:53:27;13.40;68.50
10057;DHT22;5068;51.286;7.518;2023-05-10T01:55:02;13.50;68.60
10057;DHT22;5068;51.286;7.518;2023-05-10T01:56:39;13.40;68.50
10057;DHT22;5068;51.286;7.518;2023-05-10T01:58:19;13.40;68.50
10057;DHT22;5068;51.286;7.518;2023-05-10T01:59:55;13.50;68.70
10057;DHT22;5068;51.286;7.518;2023-05-10T02:01:30;13.40;68.50
10057;DHT22;5068;51.286;7.518;2023-05-10T02:03:06;13.50;68.60
10057;DHT22;5068;51.286;7.518;2023-05-10T02:04:43;13.50;68.70
10057;DHT22;5068;51.286;7.518;2023-05-10T02:06:20;13.40;68.50
10057;DHT22;5068;51.286;7.518;2023-05-10T02:07:55;13.40;68.60
10057;DHT22;5068;51.286;7.518;2023-05-10T02:09:30;13.40;68.60
10057;DHT22;5068;51.286;7.518;2023-05-10T02:11:07;13.40;68.60
10057;DHT22;5068;51.286;7.518;2023-05-10T02:12:43;13.40;68.70
10057;DHT22;5068;51.286;7.518;2023-05-10T02:14:19;13.40;68.60
10057;DHT22;5068;51.286;7.518;2023-05-10T02:15:57;13.40;68.60
10057;DHT22;5068;51.286;7.518;2023-05-10T02:17:32;13.40;68.70
10057;DHT22;5068;51.286;7.518;2023-05-10T02:19:05;13.40;68.80
10057;DHT22;5068;51.286;7.518;2023-05-10T02:20:43;13.40;68.80
10057;DHT22;5068;51.286;7.518;2023-05-10T02:22:20;13.40;68.90
10057;DHT22;5068;51.286;7.518;2023-05-10T02:23:55;13.40;68.90
10057;DHT22;5068;51.286;7.518;2023-05-10T02:25:30;13.30;68.90
10057;DHT22;5068;51.286;7.518;2023-05-10T02:27:06;13.30;68.90
10057;DHT22;5068;51.286;7.518;2023-05-10T02:28:42;13.30;68.90
10057;DHT22;5068;51.286;7.518;2023-05-10T02:30:15;13.30;69.00
10057;DHT22;5068;51.286;7.518;2023-05-10T02:31:51;13.30;68.90
10057;DHT22;5068;51.286;7.518;2023-05-10T02:33:27;13.40;69.10
10057;DHT22;5068;51.286;7.518;2023-05-10T02:35:04;13.30;69.00
10057;DHT22;5068;51.286;7.518;2023-05-10T02:36:40;13.40;69.10
10057;DHT22;5068;51.286;7.518;2023-05-10T02:38:14;13.30;69.00
10057;DHT22;5068;51.286;7.518;2023-05-10T02:39:49;13.30;69.00
10057;DHT22;5068;51.286;7.518;2023-05-10T02:41:24;13.30;69.00
10057;DHT22;5068;51.286;7.518;2023-05-10T02:42:58;13.30;69.10
10057;DHT22;5068;51.286;7.518;2023-05-10T02:44:34;13.30;69.40
10057;DHT22;5068;51.286;7.518;2023-05-10T02:46:09;13.30;69.00
10057;DHT22;5068;51.286;7.518;2023-05-10T02:47:42;13.30;69.00
10057;DHT22;5068;51.286;7.518;2023-05-10T02:49:16;13.30;69.00
10057;DHT22;5068;51.286;7.518;2023-05-10T02:50:51;13.30;69.10
10057;DHT22;5068;51.286;7.518;2023-05-10T02:52:29;13.30;69.20
10057;DHT22;5068;51.286;7.518;2023-05-10T02:54:11;13.30;69.30
10057;DHT22;5068;51.286;7.518;2023-05-10T02:55:51;13.30;69.30
10057;DHT22;5068;51.286;7.518;2023-05-10T02:57:31;13.30;69.20
10057;DHT22;5068;51.286;7.518;2023-05-10T02:59:06;13.30;69.20
10057;DHT22;5068;51.286;7.518;2023-05-10T03:00:39;13.30;69.20
10057;DHT22;5068;51.286;7.518;2023-05-10T03:02:12;13.30;69.30
10057;DHT22;5068;51.286;7.518;2023-05-10T03:03:47;13.30;69.40
10057;DHT22;5068;51.286;7.518;2023-05-10T03:05:19;13.30;69.40
10057;DHT22;5068;51.286;7.518;2023-05-10T03:06:53;13.30;69.40
10057;DHT22;5068;51.286;7.518;2023-05-10T03:08:28;13.30;69.40
10057;DHT22;5068;51.286;7.518;2023-05-10T03:10:02;13.30;69.40
10057;DHT22;5068;51.286;7.518;2023-05-10T03:11:45;13.30;69.40
10057;DHT22;5068;51.286;7.518;2023-05-10T03:13:31;13.30;69.40
10057;DHT22;5068;51.286;7.518;2023-05-10T03:15:13;13.30;69.40
10057;DHT22;5068;51.286;7.518;2023-05-10T03:16:56;13.30;69.40
10057;DHT22;5068;51.286;7.518;2023-05-10T03:18:42;13.30;69.40
10057;DHT22;5068;51.286;7.518;2023-05-10T03:20:21;13.30;69.40
10057;DHT22;5068;51.286;7.518;2023-05-10T03:21:59;13.30;69.40
10057;DHT22;5068;51.286;7.518;2023-05-10T03:23:48;13.30;69.40
10057;DHT22;5068;51.286;7.518;2023-05-10T03:25:24;13.30;69.30
10057;DHT22;5068;51.286;7.518;2023-05-10T03:26:59;13.30;69.20
10057;DHT22;5068;51.286;7.518;2023-05-10T03:28:35;13.30;69.10
10057;DHT22;5068;51.286;7.518;2023-05-10T03:30:11;13.30;69.10
10057;DHT22;5068;51.286;7.518;2023-05-10T03:31:46;13.30;69.20
10057;DHT22;5068;51.286;7.518;2023-05-10T03:33:19;13.30;69.20
10057;DHT22;5068;51.286;7.518;2023-05-10T03:34:52;13.30;69.40
10057;DHT22;5068;51.286;7.518;2023-05-10T03:36:26;13.30;69.20
10057;DHT22;5068;51.286;7.518;2023-05-10T03:38:00;13.30;69.40
10057;DHT22;5068;51.286;7.518;2023-05-10T03:39:33;13.20;69.20
10057;DHT22;5068;51.286;7.518;2023-05-10T03:41:07;13.20;69.20
10057;DHT22;5068;51.286;7.518;2023-05-10T03:42:41;13.20;69.10
10057;DHT22;5068;51.286;7.518;2023-05-10T03:44:14;13.20;69.10
10057;DHT22;5068;51.286;7.518;2023-05-10T03:45:48;13.20;69.00
10057;DHT22;5068;51.286;7.518;2023-05-10T03:47:21;13.20;69.00
10057;DHT22;5068;51.286;7.518;2023-05-10T03:48:54;13.20;68.90
10057;DHT22;5068;51.286;7.518;2023-05-10T03:50:27;13.30;69.10
10057;DHT22;5068;51.286;7.518;2023-05-10T03:52:00;13.20;68.90
10057;DHT22;5068;51.286;7.518;2023-05-10T03:53:32;13.20;68.70
10057;DHT22;5068;51.286;7.518;2023-05-10T03:55:07;13.20;68.70
10057;DHT22;5068;51.286;7.518;2023-05-10T03:56:40;13.20;68.80
10057;DHT22;5068;51.286;7.518;2023-05-10T03:58:13;13.20;68.80
10057;DHT22;5068;51.286;7.518;2023-05-10T03:59:47;13.20;68.80
10057;DHT22;5068;51.286;7.518;2023-05-10T04:01:19;13.10;68.60
10057;DHT22;5068;51.286;7.518;2023-05-10T04:02:52;13.10;68.60
10057;DHT22;5068;51.286;7.518;2023-05-10T04:04:26;13.10;68.60
10057;DHT22;5068;51.286;7.518;2023-05-10T04:05:59;13.10;68.50
10057;DHT22;5068;51.286;7.518;2023-05-10T04:07:33;13.10;68.50
10057;DHT22;5068;51.286;7.518;2023-05-10T04:09:06;13.10;68.30
10057;DHT22;5068;51.286;7.518;2023-05-10T04:10:41;13.10;68.30
10057;DHT22;5068;51.286;7.518;2023-05-10T04:12:15;13.10;68.30
10057;DHT22;5068;51.286;7.518;2023-05-10T04:13:48;13.10;68.30
10057;DHT22;5068;51.286;7.518;2023-05-10T04:15:20;13.10;68.30
10057;DHT22;5068;51.286;7.518;2023-05-10T04:16:53;13.10;68.40
10057;DHT22;5068;51.286;7.518;2023-05-10T04:18:27;13.10;68.50
10057;DHT22;5068;51.286;7.518;2023-05-10T04:20:00;13.10;68.50
10057;DHT22;5068;51.286;7.518;2023-05-10T04:21:34;13.10;68.60
10057;DHT22;5068;51.286;7.518;2023-05-10T04:23:07;13.00;68.50
10057;DHT22;5068;51.286;7.518;2023-05-10T04:24:40;13.00;68.60
10057;DHT22;5068;51.286;7.518;2023-05-10T04:26:14;13.10;68.70
10057;DHT22;5068;51.286;7.518;2023-05-10T04:27:48;13.00;68.60
10057;DHT22;5068;51.286;7.518;2023-05-10T04:29:21;13.00;68.60
10057;DHT22;5068;51.286;7.518;2023-05-10T04:30:53;13.00;68.60
10057;DHT22;5068;51.286;7.518;2023-05-10T04:32:32;13.00;68.60
10057;DHT22;5068;51.286;7.518;2023-05-10T04:34:06;13.00;68.50
10057;DHT22;5068;51.286;7.518;2023-05-10T04:35:39;13.00;68.50
10057;DHT22;5068;51.286;7.518;2023-05-10T04:37:12;13.00;68.60
10057;DHT22;5068;51.286;7.518;2023-05-10T04:38:45;13.00;68.50
10057;DHT22;5068;51.286;7.518;2023-05-10T04:40:18;13.00;68.50
10057;DHT22;5068;51.286;7.518;2023-05-10T04:41:53;13.00;68.50
10057;DHT22;5068;51.286;7.518;2023-05-10T04:43:26;13.00;68.50
10057;DHT22;5068;51.286;7.518;2023-05-10T04:44:59;13.00;68.50
10057;DHT22;5068;51.286;7.518;2023-05-10T04:46:32;13.00;68.50
10057;DHT22;5068;51.286;7.518;2023-05-10T04:48:05;13.00;68.50
10057;DHT22;5068;51.286;7.518;2023-05-10T04:49:39;13.00;68.40
10057;DHT22;5068;51.286;7.518;2023-05-10T04:51:12;13.00;68.40
10057;DHT22;5068;51.286;7.518;2023-05-10T04:52:45;13.00;68.40
10057;DHT22;5068;51.286;7.518;2023-05-10T04:54:18;12.90;68.30
10057;DHT22;5068;51.286;7.518;2023-05-10T04:55:52;12.90;68.40
10057;DHT22;5068;51.286;7.518;2023-05-10T04:57:26;12.90;68.40
10057;DHT22;5068;51.286;7.518;2023-05-10T04:59:00;12.90;68.40
10057;DHT22;5068;51.286;7.518;2023-05-10T05:00:33;13.00;68.40
10057;DHT22;5068;51.286;7.518;2023-05-10T05:02:06;12.90;68.30
10057;DHT22;5068;51.286;7.518;2023-05-10T05:03:40;12.90;68.30
10057;DHT22;5068;51.286;7.518;2023-05-10T05:05:14;12.90;68.30
10057;DHT22;5068;51.286;7.518;2023-05-10T05:06:47;12.90;68.30
10057;DHT22;5068;51.286;7.518;2023-05-10T05:08:24;12.90;68.30
10057;DHT22;5068;51.286;7.518;2023-05-10T05:09:57;12.90;68.50
10057;DHT22;5068;51.286;7.518;2023-05-10T05:11:31;12.90;68.50
10057;DHT22;5068;51.286;7.518;2023-05-10T05:13:05;12.80;68.50
10057;DHT22;5068;51.286;7.518;2023-05-10T05:14:38;12.90;68.70
10057;DHT22;5068;51.286;7.518;2023-05-10T05:16:12;12.90;69.00
10057;DHT22;5068;51.286;7.518;2023-05-10T05:17:44;12.90;68.70
10057;DHT22;5068;51.286;7.518;2023-05-10T05:19:17;12.90;68.70
10057;DHT22;5068;51.286;7.518;2023-05-10T05:20:50;12.90;68.80
10057;DHT22;5068;51.286;7.518;2023-05-10T05:22:24;12.90;68.90
10057;DHT22;5068;51.286;7.518;2023-05-10T05:23:59;12.90;68.90
10057;DHT22;5068;51.286;7.518;2023-05-10T05:25:32;12.80;68.80
10057;DHT22;5068;51.286;7.518;2023-05-10T05:27:05;12.80;68.80
10057;DHT22;5068;51.286;7.518;2023-05-10T05:28:40;12.80;68.90
10057;DHT22;5068;51.286;7.518;2023-05-10T05:30:13;12.90;68.90
10057;DHT22;5068;51.286;7.518;2023-05-10T05:31:47;12.80;68.80
10057;DHT22;5068;51.286;7.518;2023-05-10T05:33:20;12.80;68.80
10057;DHT22;5068;51.286;7.518;2023-05-10T05:35:09;12.90;69.00
10057;DHT22;5068;51.286;7.518;2023-05-10T05:36:43;12.90;69.30
10057;DHT22;5068;51.286;7.518;2023-05-10T05:38:16;12.90;69.20
10057;DHT22;5068;51.286;7.518;2023-05-10T05:39:49;12.80;69.20
10057;DHT22;5068;51.286;7.518;2023-05-10T05:41:22;12.90;69.40
10057;DHT22;5068;51.286;7.518;2023-05-10T05:42:56;12.90;69.30
10057;DHT22;5068;51.286;7.518;2023-05-10T05:44:30;12.90;69.30
10057;DHT22;5068;51.286;7.518;2023-05-10T05:46:04;12.90;69.30
10057;DHT22;5068;51.286;7.518;2023-05-10T05:47:37;12.90;69.30
10057;DHT22;5068;51.286;7.518;2023-05-10T05:49:10;12.90;69.40
10057;DHT22;5068;51.286;7.518;2023-05-10T05:50:44;12.90;69.40
10057;DHT22;5068;51.286;7.518;2023-05-10T05:52:17;12.90;69.40
10057;DHT22;5068;51.286;7.518;2023-05-10T05:53:50;12.90;69.40
10057;DHT22;5068;51.286;7.518;2023-05-10T05:55:23;12.80;69.40
10057;DHT22;5068;51.286;7.518;2023-05-10T05:56:58;12.90;69.50
10057;DHT22;5068;51.286;7.518;2023-05-10T05:58:32;12.90;69.50
10057;DHT22;5068;51.286;7.518;2023-05-10T06:00:08;12.90;69.40
10057;DHT22;5068;51.286;7.518;2023-05-10T06:01:44;12.90;69.40
10057;DHT22;5068;51.286;7.518;2023-05-10T06:03:18;12.90;69.40
10057;DHT22;5068;51.286;7.518;2023-05-10T06:04:51;12.90;69.50
10057;DHT22;5068;51.286;7.518;2023-05-10T06:06:24;12.90;69.50
10057;DHT22;5068;51.286;7.518;2023-05-10T06:07:59;12.90;69.50
10057;DHT22;5068;51.286;7.518;2023-05-10T06:09:33;12.90;69.50
10057;DHT22;5068;51.286;7.518;2023-05-10T06:11:06;12.90;69.50
10057;DHT22;5068;51.286;7.518;2023-05-10T06:12:39;12.90;69.60
10057;DHT22;5068;51.286;7.518;2023-05-10T06:14:12;12.90;69.60
10057;DHT22;5068;51.286;7.518;2023-05-10T06:15:47;12.90;69.60
10057;DHT22;5068;51.286;7.518;2023-05-10T06:17:20;13.00;69.80
10057;DHT22;5068;51.286;7.518;2023-05-10T06:18:53;13.00;69.80
10057;DHT22;5068;51.286;7.518;2023-05-10T06:20:27;13.00;69.90
10057;DHT22;5068;51.286;7.518;2023-05-10T06:22:00;13.00;69.90
10057;DHT22;5068;51.286;7.518;2023-05-10T06:23:33;13.00;69.80
10057;DHT22;5068;51.286;7.518;2023-05-10T06:25:08;13.00;69.80
10057;DHT22;5068;51.286;7.518;2023-05-10T06:26:42;13.00;69.80
10057;DHT22;5068;51.286;7.518;2023-05-10T06:28:15;13.00;69.70
10057;DHT22;5068;51.286;7.518;2023-05-10T06:29:48;13.00;69.80
10057;DHT22;5068;51.286;7.518;2023-05-10T06:31:31;13.00;69.90
10057;DHT22;5068;51.286;7.518;2023-05-10T06:33:04;13.00;70.00
10057;DHT22;5068;51.286;7.518;2023-05-10T06:34:37;13.10;70.40
10057;DHT22;5068;51.286;7.518;2023-05-10T06:36:11;13.10;70.10
10057;DHT22;5068;51.286;7.518;2023-05-10T06:37:45;13.10;70.00
10057;DHT22;5068;51.286;7.518;2023-05-10T06:39:18;13.20;70.10
10057;DHT22;5068;51.286;7.518;2023-05-10T06:40:51;13.10;70.00
10057;DHT22;5068;51.286;7.518;2023-05-10T06:42:24;13.10;70.00
10057;DHT22;5068;51.286;7.518;2023-05-10T06:43:59;13.10;70.10
10057;DHT22;5068;51.286;7.518;2023-05-10T06:45:32;13.20;70.30
10057;DHT22;5068;51.286;7.518;2023-05-10T06:47:06;13.20;70.30
10057;DHT22;5068;51.286;7.518;2023-05-10T06:48:40;13.20;70.10
10057;DHT22;5068;51.286;7.518;2023-05-10T06:50:13;13.20;70.00
10057;DHT22;5068;51.286;7.518;2023-05-10T06:51:46;13.20;70.00
10057;DHT22;5068;51.286;7.518;2023-05-10T06:53:20;13.20;70.00
10057;DHT22;5068;51.286;7.518;2023-05-10T06:54:53;13.20;70.00
10057;DHT22;5068;51.286;7.518;2023-05-10T06:56:26;13.30;70.10
10057;DHT22;5068;51.286;7.518;2023-05-10T06:57:59;13.30;70.10
10057;DHT22;5068;51.286;7.518;2023-05-10T06:59:32;13.30;69.80
10057;DHT22;5068;51.286;7.518;2023-05-10T07:01:06;13.30;69.60
10057;DHT22;5068;51.286;7.518;2023-05-10T07:02:40;13.30;69.60
10057;DHT22;5068;51.286;7.518;2023-05-10T07:04:14;13.30;69.60
10057;DHT22;5068;51.286;7.518;2023-05-10T07:05:47;13.40;69.70
10057;DHT22;5068;51.286;7.518;2023-05-10T07:07:20;13.40;69.70
10057;DHT22;5068;51.286;7.518;2023-05-10T07:08:54;13.40;69.50
10057;DHT22;5068;51.286;7.518;2023-05-10T07:10:27;13.50;69.50
10057;DHT22;5068;51.286;7.518;2023-05-10T07:12:01;13.50;69.40
10057;DHT22;5068;51.286;7.518;2023-05-10T07:13:34;13.50;69.40
10057;DHT22;5068;51.286;7.518;2023-05-10T07:15:10;13.50;69.40
10057;DHT22;5068;51.286;7.518;2023-05-10T07:16:44;13.50;70.10
10057;DHT22;5068;51.286;7.518;2023-05-10T07:18:18;13.60;69.40
10057;DHT22;5068;51.286;7.518;2023-05-10T07:19:51;13.60;69.60
10057;DHT22;5068;51.286;7.518;2023-05-10T07:21:25;13.60;69.70
10057;DHT22;5068;51.286;7.518;2023-05-10T07:23:00;13.60;69.60
10057;DHT22;5068;51.286;7.518;2023-05-10T07:24:33;13.70;69.60
10057;DHT22;5068;51.286;7.518;2023-05-10T07:26:07;13.70;69.80
10057;DHT22;5068;51.286;7.518;2023-05-10T07:27:41;13.70;69.80
10057;DHT22;5068;51.286;7.518;2023-05-10T07:29:14;13.70;69.80
10057;DHT22;5068;51.286;7.518;2023-05-10T07:30:47;13.80;69.80
10057;DHT22;5068;51.286;7.518;2023-05-10T07:32:20;13.80;69.50
10057;DHT22;5068;51.286;7.518;2023-05-10T07:33:55;13.80;69.60
10057;DHT22;5068;51.286;7.518;2023-05-10T07:35:29;13.80;69.60
10057;DHT22;5068;51.286;7.518;2023-05-10T07:37:02;13.90;69.40
10057;DHT22;5068;51.286;7.518;2023-05-10T07:38:35;13.90;69.30
10057;DHT22;5068;51.286;7.518;2023-05-10T07:40:11;13.90;69.00
10057;DHT22;5068;51.286;7.518;2023-05-10T07:41:45;13.90;68.70
10057;DHT22;5068;51.286;7.518;2023-05-10T07:43:18;14.00;68.80
10057;DHT22;5068;51.286;7.518;2023-05-10T07:44:51;14.00;68.80
10057;DHT22;5068;51.286;7.518;2023-05-10T07:46:24;14.10;68.70
10057;DHT22;5068;51.286;7.518;2023-05-10T07:47:58;14.10;68.40
10057;DHT22;5068;51.286;7.518;2023-05-10T07:49:33;14.10;67.90
10057;DHT22;5068;51.286;7.518;2023-05-10T07:51:07;14.10;67.60
10057;DHT22;5068;51.286;7.518;2023-05-10T07:52:41;14.10;67.60
10057;DHT22;5068;51.286;7.518;2023-05-10T07:54:14;14.10;67.50
10057;DHT22;5068;51.286;7.518;2023-05-10T07:55:50;14.20;67.20
10057;DHT22;5068;51.286;7.518;2023-05-10T07:57:23;14.20;67.20
10057;DHT22;5068;51.286;7.518;2023-05-10T07:58:56;14.20;67.20
10057;DHT22;5068;51.286;7.518;2023-05-10T08:00:31;14.20;67.20
10057;DHT22;5068;51.286;7.518;2023-05-10T08:02:04;14.20;67.20
10057;DHT22;5068;51.286;7.518;2023-05-10T08:03:37;14.20;67.20
10057;DHT22;5068;51.286;7.518;2023-05-10T08:05:12;14.20;67.20
10057;DHT22;5068;51.286;7.518;2023-05-10T08:06:46;14.20;66.90
10057;DHT22;5068;51.286;7.518;2023-05-10T08:08:20;14.20;66.70
10057;DHT22;5068;51.286;7.518;2023-05-10T08:09:55;14.10;66.60
10057;DHT22;5068;51.286;7.518;2023-05-10T08:11:28;14.10;66.70
10057;DHT22;5068;51.286;7.518;2023-05-10T08:13:02;14.10;66.80
10057;DHT22;5068;51.286;7.518;2023-05-10T08:14:35;14.10;66.80
10057;DHT22;5068;51.286;7.518;2023-05-10T08:16:09;14.10;67.00
10057;DHT22;5068;51.286;7.518;2023-05-10T08:17:42;14.10;66.90
10057;DHT22;5068;51.286;7.518;2023-05-10T08:19:15;14.10;67.10
10057;DHT22;5068;51.286;7.518;2023-05-10T08:20:52;14.10;67.10
10057;DHT22;5068;51.286;7.518;2023-05-10T08:22:25;14.10;66.60
10057;DHT22;5068;51.286;7.518;2023-05-10T08:23:58;14.10;66.50
10057;DHT22;5068;51.286;7.518;2023-05-10T08:25:31;14.10;66.50
10057;DHT22;5068;51.286;7.518;2023-05-10T08:27:05;14.10;66.30
10057;DHT22;5068;51.286;7.518;2023-05-10T08:28:38;14.10;66.20
10057;DHT22;5068;51.286;7.518;2023-05-10T08:30:12;14.20;66.40
10057;DHT22;5068;51.286;7.518;2023-05-10T08:31:45;14.20;66.60
10057;DHT22;5068;51.286;7.518;2023-05-10T08:33:18;14.20;66.30
10057;DHT22;5068;51.286;7.518;2023-05-10T08:34:52;14.20;66.30
10057;DHT22;5068;51.286;7.518;2023-05-10T08:36:26;14.20;66.20
10057;DHT22;5068;51.286;7.518;2023-05-10T08:38:00;14.20;66.20
10057;DHT22;5068;51.286;7.518;2023-05-10T08:39:34;14.20;66.10
10057;DHT22;5068;51.286;7.518;2023-05-10T08:41:07;14.20;66.10
10057;DHT22;5068;51.286;7.518;2023-05-10T08:42:45;14.20;66.20
10057;DHT22;5068;51.286;7.518;2023-05-10T08:44:23;14.20;65.70
10057;DHT22;5068;51.286;7.518;2023-05-10T08:46:00;14.20;65.70
10057;DHT22;5068;51.286;7.518;2023-05-10T08:47:35;14.20;65.70
10057;DHT22;5068;51.286;7.518;2023-05-10T08:49:13;14.20;65.90
10057;DHT22;5068;51.286;7.518;2023-05-10T08:50:51;14.20;66.20
10057;DHT22;5068;51.286;7.518;2023-05-10T08:52:28;14.30;66.40
10057;DHT22;5068;51.286;7.518;2023-05-10T08:54:04;14.30;66.30
10057;DHT22;5068;51.286;7.518;2023-05-10T08:55:38;14.30;66.40
10057;DHT22;5068;51.286;7.518;2023-05-10T08:57:13;14.30;66.50
10057;DHT22;5068;51.286;7.518;2023-05-10T08:58:47;14.30;66.50
10057;DHT22;5068;51.286;7.518;2023-05-10T09:00:21;14.40;66.70
10057;DHT22;5068;51.286;7.518;2023-05-10T09:01:57;14.40;66.80
10057;DHT22;5068;51.286;7.518;2023-05-10T09:03:31;14.40;66.50
10057;DHT22;5068;51.286;7.518;2023-05-10T09:05:06;14.50;66.40
10057;DHT22;5068;51.286;7.518;2023-05-10T09:06:40;14.60;66.40
10057;DHT22;5068;51.286;7.518;2023-05-10T09:08:15;14.60;66.10
10057;DHT22;5068;51.286;7.518;2023-05-10T09:09:50;14.60;65.50
10057;DHT22;5068;51.286;7.518;2023-05-10T09:11:24;14.70;65.30
10057;DHT22;5068;51.286;7.518;2023-05-10T09:12:58;14.70;65.30
10057;DHT22;5068;51.286;7.518;2023-05-10T09:14:34;14.80;65.30
10057;DHT22;5068;51.286;7.518;2023-05-10T09:16:08;14.80;65.10
10057;DHT22;5068;51.286;7.518;2023-05-10T09:17:54;14.90;65.00
10057;DHT22;5068;51.286;7.518;2023-05-10T09:19:28;14.90;64.80
10057;DHT22;5068;51.286;7.518;2023-05-10T09:21:01;14.90;64.90
10057;DHT22;5068;51.286;7.518;2023-05-10T09:22:35;15.00;64.90
10057;DHT22;5068;51.286;7.518;2023-05-10T09:24:11;15.00;64.50
10057;DHT22;5068;51.286;7.518;2023-05-10T09:25:44;15.00;64.20
10057;DHT22;5068;51.286;7.518;2023-05-10T09:27:26;15.00;64.90
10057;DHT22;5068;51.286;7.518;2023-05-10T09:29:00;15.00;63.90
10057;DHT22;5068;51.286;7.518;2023-05-10T09:30:35;15.10;64.40
10057;DHT22;5068;51.286;7.518;2023-05-10T09:32:08;15.10;64.50
10057;DHT22;5068;51.286;7.518;2023-05-10T09:33:43;15.20;64.60
10057;DHT22;5068;51.286;7.518;2023-05-10T09:35:18;15.20;64.00
10057;DHT22;5068;51.286;7.518;2023-05-10T09:36:55;15.20;63.70
10057;DHT22;5068;51.286;7.518;2023-05-10T09:38:45;15.30;63.60
10057;DHT22;5068;51.286;7.518;2023-05-10T09:40:21;15.30;62.90
10057;DHT22;5068;51.286;7.518;2023-05-10T09:41:55;15.40;63.10
10057;DHT22;5068;51.286;7.518;2023-05-10T09:43:37;15.40;63.10
10057;DHT22;5068;51.286;7.518;2023-05-10T09:45:10;15.50;62.40
10057;DHT22;5068;51.286;7.518;2023-05-10T09:46:49;15.50;62.40
10057;DHT22;5068;51.286;7.518;2023-05-10T09:48:24;15.50;62.30
10057;DHT22;5068;51.286;7.518;2023-05-10T09:49:58;15.50;62.20
10057;DHT22;5068;51.286;7.518;2023-05-10T09:51:35;15.60;62.10
10057;DHT22;5068;51.286;7.518;2023-05-10T09:53:09;15.60;61.70
10057;DHT22;5068;51.286;7.518;2023-05-10T09:54:47;15.70;61.40
10057;DHT22;5068;51.286;7.518;2023-05-10T09:56:36;15.70;61.00
10057;DHT22;5068;51.286;7.518;2023-05-10T09:58:12;15.70;60.40
10057;DHT22;5068;51.286;7.518;2023-05-10T09:59:47;15.80;60.70
10057;DHT22;5068;51.286;7.518;2023-05-10T10:01:20;15.80;60.70
10057;DHT22;5068;51.286;7.518;2023-05-10T10:02:55;15.80;60.60
10057;DHT22;5068;51.286;7.518;2023-05-10T10:04:29;15.80;60.70
10057;DHT22;5068;51.286;7.518;2023-05-10T10:06:03;15.80;60.90
10057;DHT22;5068;51.286;7.518;2023-05-10T10:07:58;15.90;60.60
10057;DHT22;5068;51.286;7.518;2023-05-10T10:09:33;15.90;60.40
10057;DHT22;5068;51.286;7.518;2023-05-10T10:11:07;15.90;60.10
10057;DHT22;5068;51.286;7.518;2023-05-10T10:12:42;15.90;60.00